createdAt,value
2022-10-28T00:00:17.729Z,0
2022-10-28T00:01:21.371Z,0
2022-10-28T00:02:24.533Z,0
2022-10-28T00:03:27.356Z,0
2022-10-28T00:05:32.423Z,0
2022-10-28T00:07:38.909Z,0
2022-10-28T00:08:42.099Z,0
2022-10-28T00:10:48.326Z,0
2022-10-28T00:12:54.566Z,0
2022-10-28T00:15:00.818Z,0
2022-10-28T00:16:04.160Z,0
2022-10-28T00:18:10.136Z,0
2022-10-28T00:20:15.284Z,0
2022-10-28T00:21:18.771Z,0
2022-10-28T00:23:24.708Z,0
2022-10-28T00:25:30.158Z,0
2022-10-28T00:27:35.785Z,0
2022-10-28T00:28:38.663Z,0
2022-10-28T00:30:44.569Z,0
2022-10-28T00:32:51.103Z,0
2022-10-28T00:33:54.358Z,0
2022-10-28T00:34:58.065Z,0
2022-10-28T00:36:05.611Z,0
2022-10-28T00:37:09.249Z,0
2022-10-28T00:38:12.386Z,0
2022-10-28T00:39:15.247Z,0
2022-10-28T00:40:19.056Z,0
2022-10-28T00:41:21.645Z,0
2022-10-28T00:43:27.729Z,0
2022-10-28T00:44:30.570Z,0
2022-10-28T00:46:36.719Z,0
2022-10-28T00:48:41.392Z,0
2022-10-28T00:49:44.658Z,0
2022-10-28T00:51:51.473Z,0
2022-10-28T00:52:54.828Z,0
2022-10-28T00:55:01.929Z,0
2022-10-28T00:57:08.307Z,0
2022-10-28T00:58:11.478Z,0
2022-10-28T00:59:14.628Z,0
2022-10-28T01:00:17.433Z,0
2022-10-28T01:02:24.399Z,0
2022-10-28T01:03:26.365Z,0
2022-10-28T01:04:29.178Z,0
2022-10-28T01:05:32.442Z,0
2022-10-28T01:07:39.355Z,0
2022-10-28T01:08:42.499Z,0
2022-10-28T01:09:46.296Z,0
2022-10-28T01:10:50.012Z,0
2022-10-28T01:12:58.139Z,0
2022-10-28T01:14:00.654Z,0
2022-10-28T01:16:06.319Z,0
2022-10-28T01:17:09.748Z,0
2022-10-28T01:19:14.973Z,0
2022-10-28T01:21:20.563Z,0
2022-10-28T01:22:23.858Z,0
2022-10-28T01:24:29.567Z,0
2022-10-28T01:25:32.696Z,0
2022-10-28T01:26:36.114Z,0
2022-10-28T01:27:39.901Z,0
2022-10-28T01:29:45.474Z,0
2022-10-28T01:30:48.714Z,0
2022-10-28T01:32:56.741Z,0
2022-10-28T01:33:59.710Z,0
2022-10-28T01:36:04.466Z,0
2022-10-28T01:37:07.855Z,0
2022-10-28T01:38:11.000Z,0
2022-10-28T01:39:14.729Z,0
2022-10-28T01:41:21.332Z,0
2022-10-28T01:42:24.235Z,0
2022-10-28T01:44:30.189Z,0
2022-10-28T01:45:33.641Z,0
2022-10-28T01:46:36.983Z,0
2022-10-28T01:47:40.052Z,0
2022-10-28T01:49:46.209Z,0
2022-10-28T01:50:49.622Z,0
2022-10-28T01:52:57.564Z,0
2022-10-28T01:55:03.880Z,0
2022-10-28T01:56:06.891Z,0
2022-10-28T01:58:13.392Z,0
2022-10-28T02:00:19.891Z,0
2022-10-28T02:02:26.652Z,0
2022-10-28T02:03:29.722Z,0
2022-10-28T02:05:36.222Z,0
2022-10-28T02:07:42.725Z,0
2022-10-28T02:08:46.078Z,0
2022-10-28T02:10:51.489Z,0
2022-10-28T02:11:53.653Z,0
2022-10-28T02:12:57.573Z,0
2022-10-28T02:14:00.574Z,0
2022-10-28T02:15:04.838Z,0
2022-10-28T02:17:11.385Z,0
2022-10-28T02:19:16.613Z,0
2022-10-28T02:20:19.965Z,0
2022-10-28T02:22:26.581Z,0
2022-10-28T02:23:29.303Z,0
2022-10-28T02:25:35.141Z,0
2022-10-28T02:27:40.748Z,0
2022-10-28T02:28:43.598Z,0
2022-10-28T02:30:49.711Z,0
2022-10-28T02:31:52.872Z,0
2022-10-28T02:34:01.298Z,0
2022-10-28T02:36:08.076Z,0
2022-10-28T02:37:11.226Z,0
2022-10-28T02:39:16.715Z,0
2022-10-28T02:41:22.503Z,0
2022-10-28T02:42:26.092Z,0
2022-10-28T02:43:29.103Z,0
2022-10-28T02:44:32.173Z,0
2022-10-28T02:46:39.597Z,0
2022-10-28T02:48:45.839Z,0
2022-10-28T02:49:48.563Z,0
2022-10-28T02:51:54.424Z,0
2022-10-28T02:54:00.920Z,0
2022-10-28T02:55:04.121Z,0
2022-10-28T02:56:06.996Z,0
2022-10-28T02:57:09.600Z,0
2022-10-28T02:59:15.662Z,0
2022-10-28T03:00:18.429Z,0
2022-10-28T03:01:23.203Z,0
2022-10-28T03:02:26.553Z,0
2022-10-28T03:04:32.597Z,0
2022-10-28T03:06:38.920Z,0
2022-10-28T03:07:41.703Z,0
2022-10-28T03:09:47.201Z,0
2022-10-28T03:11:53.086Z,0
2022-10-28T03:13:59.356Z,0
2022-10-28T03:15:02.091Z,0
2022-10-28T03:17:08.257Z,0
2022-10-28T03:19:15.273Z,0
2022-10-28T03:21:21.131Z,0
2022-10-28T03:22:23.649Z,0
2022-10-28T03:24:30.149Z,0
2022-10-28T03:26:35.833Z,0
2022-10-28T03:27:38.361Z,0
2022-10-28T03:28:41.631Z,0
2022-10-28T03:29:48.425Z,0
2022-10-28T03:31:54.276Z,0
2022-10-28T03:34:01.548Z,0
2022-10-28T03:35:05.023Z,0
2022-10-28T03:37:11.044Z,0
2022-10-28T03:39:16.979Z,0
2022-10-28T03:41:23.206Z,0
2022-10-28T03:42:26.377Z,0
2022-10-28T03:44:33.525Z,0
2022-10-28T03:46:40.257Z,0
2022-10-28T03:48:47.525Z,0
2022-10-28T03:49:51.340Z,0
2022-10-28T03:51:57.105Z,0
2022-10-28T03:54:03.430Z,0
2022-10-28T03:56:09.489Z,0
2022-10-28T03:57:12.187Z,0
2022-10-28T03:59:21.966Z,0
2022-10-28T04:01:29.471Z,0
2022-10-28T04:03:36.512Z,0
2022-10-28T04:04:39.400Z,0
2022-10-28T04:05:42.584Z,0
2022-10-28T04:06:45.700Z,0
2022-10-28T04:08:52.384Z,0
2022-10-28T04:09:55.446Z,0
2022-10-28T04:10:59.078Z,0
2022-10-28T04:12:03.240Z,0
2022-10-28T04:14:09.651Z,0
2022-10-28T04:16:15.611Z,0
2022-10-28T04:17:18.822Z,0
2022-10-28T04:19:25.055Z,0
2022-10-28T04:21:31.610Z,0
2022-10-28T04:23:37.493Z,0
2022-10-28T04:24:40.197Z,0
2022-10-28T04:26:46.684Z,0
2022-10-28T04:28:52.166Z,0
2022-10-28T04:30:58.250Z,0
2022-10-28T04:32:01.645Z,0
2022-10-28T04:34:07.091Z,0
2022-10-28T04:36:13.647Z,0
2022-10-28T04:39:27.990Z,0
2022-10-28T04:41:33.789Z,0
2022-10-28T04:43:39.935Z,0
2022-10-28T04:45:46.418Z,0
2022-10-28T04:46:49.209Z,0
2022-10-28T04:48:55.101Z,0
2022-10-28T04:51:01.192Z,0
2022-10-28T04:53:08.748Z,0
2022-10-28T04:54:11.917Z,0
2022-10-28T04:56:16.590Z,0
2022-10-28T04:58:22.683Z,0
2022-10-28T05:00:28.075Z,0
2022-10-28T05:01:31.196Z,0
2022-10-28T05:03:36.752Z,0
2022-10-28T05:05:43.192Z,0
2022-10-28T05:07:49.745Z,0
2022-10-28T05:08:53.200Z,0
2022-10-28T05:11:00.030Z,0
2022-10-28T05:13:05.897Z,0
2022-10-28T05:15:11.585Z,0
2022-10-28T05:16:14.732Z,0
2022-10-28T05:18:20.340Z,0
2022-10-28T05:20:26.909Z,0
2022-10-28T05:22:33.843Z,0
2022-10-28T05:23:37.239Z,0
2022-10-28T05:25:43.466Z,0
2022-10-28T05:27:48.862Z,0
2022-10-28T05:29:54.984Z,0
2022-10-28T05:30:57.763Z,0
2022-10-28T05:33:04.868Z,0
2022-10-28T05:35:10.310Z,0
2022-10-28T05:37:16.710Z,0
2022-10-28T05:38:20.221Z,0
2022-10-28T05:40:27.213Z,0
2022-10-28T05:42:33.149Z,0
2022-10-28T05:44:37.814Z,0
2022-10-28T05:45:40.676Z,0
2022-10-28T05:47:46.537Z,0
2022-10-28T05:49:52.211Z,0
2022-10-28T05:51:58.800Z,0
2022-10-28T05:53:02.175Z,0
2022-10-28T05:55:08.641Z,0
2022-10-28T05:57:15.173Z,0
2022-10-28T05:59:20.130Z,1
2022-10-28T06:00:23.468Z,1
2022-10-28T06:02:29.030Z,1
2022-10-28T06:04:37.530Z,1
2022-10-28T06:06:44.255Z,2
2022-10-28T06:07:47.125Z,2
2022-10-28T06:09:54.093Z,2
2022-10-28T06:11:59.468Z,3
2022-10-28T06:14:05.002Z,3
2022-10-28T06:15:08.626Z,3
2022-10-28T06:17:14.665Z,4
2022-10-28T06:19:24.184Z,4
2022-10-28T06:21:30.556Z,4
2022-10-28T06:22:33.893Z,5
2022-10-28T06:24:40.473Z,5
2022-10-28T06:26:47.235Z,6
2022-10-28T06:27:53.438Z,7
2022-10-28T06:28:56.796Z,8
2022-10-28T06:30:00.383Z,8
2022-10-28T06:32:05.434Z,10
2022-10-28T06:34:11.377Z,11
2022-10-28T06:35:14.088Z,12
2022-10-28T06:37:20.420Z,13
2022-10-28T06:39:27.561Z,14
2022-10-28T06:40:30.653Z,15
2022-10-28T06:41:33.985Z,16
2022-10-28T06:42:37.355Z,16
2022-10-28T06:44:44.611Z,18
2022-10-28T06:46:52.823Z,20
2022-10-28T06:47:56.260Z,22
2022-10-28T06:50:01.843Z,24
2022-10-28T06:52:08.011Z,27
2022-10-28T06:54:13.699Z,29
2022-10-28T06:55:17.160Z,31
2022-10-28T06:57:31.499Z,37
2022-10-28T06:58:34.223Z,39
2022-10-28T06:59:37.686Z,42
2022-10-28T07:01:44.041Z,45
2022-10-28T07:02:48.013Z,47
2022-10-28T07:04:54.200Z,51
2022-10-28T07:06:59.673Z,54
2022-10-28T07:08:02.795Z,57
2022-10-28T07:10:08.971Z,61
2022-10-28T07:12:14.935Z,65
2022-10-28T07:14:21.274Z,65
2022-10-28T07:15:24.448Z,71
2022-10-28T07:17:31.270Z,73
2022-10-28T07:19:38.075Z,76
2022-10-28T07:21:43.658Z,79
2022-10-28T07:22:47.069Z,82
2022-10-28T07:24:52.684Z,84
2022-10-28T07:27:00.064Z,92
2022-10-28T07:29:06.937Z,98
2022-10-28T07:30:10.034Z,101
2022-10-28T07:32:15.852Z,111
2022-10-28T07:34:29.126Z,201
2022-10-28T07:36:34.745Z,227
2022-10-28T07:37:37.465Z,186
2022-10-28T07:39:43.163Z,228
2022-10-28T07:41:48.952Z,208
2022-10-28T07:43:56.154Z,281
2022-10-28T07:44:59.853Z,223
2022-10-28T07:46:03.145Z,75
2022-10-28T07:47:06.647Z,72
2022-10-28T07:49:11.868Z,63
2022-10-28T07:50:15.151Z,64
2022-10-28T07:51:17.963Z,69
2022-10-28T07:52:21.581Z,73
2022-10-28T07:53:30.922Z,79
2022-10-28T07:54:33.623Z,85
2022-10-28T07:56:40.131Z,81
2022-10-28T07:57:43.547Z,77
2022-10-28T07:59:49.600Z,82
2022-10-28T08:01:57.315Z,90
2022-10-28T08:04:03.498Z,100
2022-10-28T08:05:06.220Z,111
2022-10-28T08:07:12.323Z,332
2022-10-28T08:09:17.567Z,436
2022-10-28T08:11:23.438Z,472
2022-10-28T08:12:25.603Z,464
2022-10-28T08:14:31.216Z,455
2022-10-28T08:16:38.079Z,442
2022-10-28T08:18:44.717Z,476
2022-10-28T08:19:48.065Z,473
2022-10-28T08:21:55.367Z,474
2022-10-28T08:23:06.648Z,489
2022-10-28T08:24:11.124Z,494
2022-10-28T08:26:17.100Z,413
2022-10-28T08:27:19.612Z,423
2022-10-28T08:28:22.782Z,513
2022-10-28T08:29:31.388Z,536
2022-10-28T08:31:10.725Z,432
2022-10-28T08:32:14.389Z,560
2022-10-28T08:36:26.794Z,560
2022-10-28T08:37:30.533Z,551
2022-10-28T08:38:34.039Z,566
2022-10-28T08:39:37.072Z,574
2022-10-28T08:41:43.076Z,574
2022-10-28T08:42:46.746Z,578
2022-10-28T08:44:00.134Z,580
2022-10-28T08:45:04.105Z,587
2022-10-28T08:47:10.886Z,627
2022-10-28T08:48:13.382Z,642
2022-10-28T08:50:19.931Z,667
2022-10-28T08:52:26.798Z,684
2022-10-28T08:53:29.588Z,691
2022-10-28T08:55:35.836Z,696
2022-10-28T08:57:42.003Z,690
2022-10-28T08:58:44.793Z,689
2022-10-28T09:00:50.853Z,687
2022-10-28T09:04:03.262Z,656
2022-10-28T09:06:09.998Z,619
2022-10-28T09:07:13.613Z,594
2022-10-28T09:08:16.595Z,639
2022-10-28T09:09:19.309Z,534
2022-10-28T09:11:29.523Z,572
2022-10-28T09:12:32.625Z,607
2022-10-28T09:14:38.328Z,691
2022-10-28T09:16:44.666Z,657
2022-10-28T09:17:48.362Z,665
2022-10-28T09:18:51.718Z,638
2022-10-28T09:19:54.863Z,621
2022-10-28T09:22:01.755Z,599
2022-10-28T09:23:04.925Z,635
2022-10-28T09:25:10.881Z,690
2022-10-28T09:26:13.883Z,718
2022-10-28T09:28:19.766Z,774
2022-10-28T09:30:25.188Z,768
2022-10-28T09:31:28.542Z,782
2022-10-28T09:33:35.486Z,792
2022-10-28T09:34:38.388Z,797
2022-10-28T09:36:45.733Z,799
2022-10-28T09:38:52.903Z,792
2022-10-28T09:39:56.002Z,794
2022-10-28T09:42:02.911Z,809
2022-10-28T09:43:06.556Z,819
2022-10-28T09:45:12.427Z,821
2022-10-28T09:47:18.460Z,817
2022-10-28T09:48:21.530Z,832
2022-10-28T09:50:27.263Z,811
2022-10-28T09:52:34.494Z,851
2022-10-28T09:53:38.176Z,845
2022-10-28T09:54:41.218Z,856
2022-10-28T09:55:44.560Z,852
2022-10-28T09:57:51.052Z,855
2022-10-28T09:58:53.764Z,873
2022-10-28T09:59:57.030Z,839
2022-10-28T10:01:00.114Z,868
2022-10-28T10:03:07.172Z,901
2022-10-28T10:05:18.916Z,876
2022-10-28T10:06:22.542Z,860
2022-10-28T10:07:25.333Z,846
2022-10-28T10:08:28.966Z,824
2022-10-28T10:10:35.518Z,808
2022-10-28T10:11:38.109Z,835
2022-10-28T10:12:41.219Z,873
2022-10-28T10:13:44.291Z,890
2022-10-28T10:15:51.967Z,887
2022-10-28T10:17:57.735Z,877
2022-10-28T10:19:01.443Z,871
2022-10-28T10:21:08.014Z,889
2022-10-28T10:23:14.334Z,878
2022-10-28T10:24:17.430Z,870
2022-10-28T10:26:24.373Z,849
2022-10-28T10:28:30.138Z,859
2022-10-28T10:30:35.819Z,868
2022-10-28T10:31:38.397Z,888
2022-10-28T10:33:45.096Z,893
2022-10-28T10:35:50.987Z,817
2022-10-28T10:36:54.561Z,827
2022-10-28T10:37:59.208Z,775
2022-10-28T10:39:02.763Z,820
2022-10-28T10:41:09.358Z,870
2022-10-28T10:43:16.650Z,884
2022-10-28T10:44:19.158Z,891
2022-10-28T10:45:22.814Z,903
2022-10-28T10:46:25.879Z,910
2022-10-28T10:48:31.971Z,901
2022-10-28T10:49:34.608Z,877
2022-10-28T10:50:37.854Z,869
2022-10-28T10:51:42.510Z,860
2022-10-28T10:53:48.578Z,854
2022-10-28T10:54:52.457Z,840
2022-10-28T10:56:59.501Z,839
2022-10-28T10:59:05.945Z,888
2022-10-28T11:01:13.478Z,913
2022-10-28T11:02:17.648Z,898
2022-10-28T11:04:23.843Z,872
2022-10-28T11:05:40.231Z,850
2022-10-28T11:06:43.049Z,824
2022-10-28T11:08:50.546Z,806
2022-10-28T11:09:53.959Z,780
2022-10-28T11:12:01.219Z,814
2022-10-28T11:13:04.397Z,847
2022-10-28T11:15:10.008Z,838
2022-10-28T11:17:16.072Z,821
2022-10-28T11:18:19.442Z,807
2022-10-28T11:20:25.627Z,800
2022-10-28T11:22:31.017Z,812
2022-10-28T11:23:34.422Z,828
2022-10-28T11:25:40.627Z,854
2022-10-28T11:28:05.252Z,839
2022-10-28T11:30:12.293Z,806
2022-10-28T11:31:15.309Z,790
2022-10-28T11:33:39.876Z,781
2022-10-28T11:34:42.351Z,803
2022-10-28T11:36:49.186Z,851
2022-10-28T11:38:54.939Z,851
2022-10-28T11:39:58.409Z,836
2022-10-28T11:41:01.800Z,819
2022-10-28T11:42:05.212Z,808
2022-10-28T11:44:11.786Z,778
2022-10-28T11:45:14.222Z,782
2022-10-28T11:47:20.379Z,780
2022-10-28T11:48:23.848Z,774
2022-10-28T11:50:29.303Z,751
2022-10-28T11:51:31.829Z,756
2022-10-28T11:52:35.854Z,732
2022-10-28T11:53:38.619Z,736
2022-10-28T11:55:45.235Z,708
2022-10-28T11:56:47.507Z,700
2022-10-28T11:58:54.478Z,690
2022-10-28T11:59:57.667Z,688
2022-10-28T12:02:03.888Z,573
2022-10-28T12:04:10.751Z,553
2022-10-28T12:05:13.463Z,582
2022-10-28T12:07:19.134Z,578
2022-10-28T12:09:24.743Z,465
2022-10-28T12:10:27.926Z,493
2022-10-28T12:12:33.797Z,537
2022-10-28T12:13:37.215Z,516
2022-10-28T12:15:43.741Z,477
2022-10-28T12:17:50.120Z,523
2022-10-28T12:18:52.837Z,533
2022-10-28T12:20:58.345Z,516
2022-10-28T12:22:01.753Z,544
2022-10-28T12:23:04.749Z,470
2022-10-28T12:24:07.938Z,459
2022-10-28T12:26:14.729Z,372
2022-10-28T12:27:20.568Z,272
2022-10-28T12:29:26.338Z,332
2022-10-28T12:31:32.956Z,235
2022-10-28T12:32:36.029Z,261
2022-10-28T12:34:42.552Z,436
2022-10-28T12:35:45.340Z,411
2022-10-28T12:36:48.046Z,356
2022-10-28T12:37:51.024Z,278
2022-10-28T12:38:54.178Z,196
2022-10-28T12:41:00.509Z,184
2022-10-28T12:43:08.000Z,195
2022-10-28T12:44:11.181Z,217
2022-10-28T12:46:18.941Z,233
2022-10-28T12:47:21.981Z,247
2022-10-28T12:48:25.158Z,274
2022-10-28T12:49:27.584Z,270
2022-10-28T12:50:30.659Z,269
2022-10-28T12:51:34.371Z,195
2022-10-28T12:52:37.398Z,179
2022-10-28T12:53:40.200Z,196
2022-10-28T12:55:46.233Z,186
2022-10-28T12:57:55.927Z,156
2022-10-28T12:59:01.013Z,171
2022-10-28T13:00:04.849Z,188
2022-10-28T13:01:09.197Z,246
2022-10-28T13:03:17.269Z,144
2022-10-28T13:04:20.342Z,121
2022-10-28T13:05:23.457Z,116
2022-10-28T13:06:26.641Z,115
2022-10-28T13:07:31.110Z,119
2022-10-28T13:08:36.101Z,121
2022-10-28T13:09:42.209Z,125
2022-10-28T13:11:47.949Z,126
2022-10-28T13:12:50.087Z,136
2022-10-28T13:14:57.460Z,136
2022-10-28T13:16:00.224Z,170
2022-10-28T13:18:07.006Z,177
2022-10-28T13:19:10.475Z,175
2022-10-28T13:21:18.110Z,147
2022-10-28T13:23:25.502Z,141
2022-10-28T13:24:29.394Z,138
2022-10-28T13:26:38.070Z,150
2022-10-28T13:28:44.640Z,154
2022-10-28T13:30:49.969Z,190
2022-10-28T13:31:53.319Z,126
2022-10-28T13:34:00.473Z,112
2022-10-28T13:35:04.000Z,108
2022-10-28T13:37:11.119Z,153
2022-10-28T13:39:17.458Z,99
2022-10-28T13:40:21.209Z,94
2022-10-28T13:42:26.888Z,83
2022-10-28T13:43:29.998Z,78
2022-10-28T13:45:35.443Z,69
2022-10-28T13:46:38.942Z,64
2022-10-28T13:48:44.532Z,60
2022-10-28T13:50:51.797Z,59
2022-10-28T13:51:54.563Z,60
2022-10-28T13:54:03.376Z,64
2022-10-28T13:56:09.075Z,63
2022-10-28T13:57:11.751Z,62
2022-10-28T13:59:18.101Z,65
2022-10-28T14:01:24.212Z,63
2022-10-28T14:02:44.452Z,61
2022-10-28T14:04:52.678Z,61
2022-10-28T14:07:00.150Z,62
2022-10-28T14:08:03.428Z,61
2022-10-28T14:09:06.701Z,61
2022-10-28T14:10:11.197Z,60
2022-10-28T14:11:14.373Z,59
2022-10-28T14:13:19.924Z,59
2022-10-28T14:15:26.569Z,58
2022-10-28T14:17:33.193Z,57
2022-10-28T14:18:48.509Z,57
2022-10-28T14:20:55.151Z,56
2022-10-28T14:22:05.332Z,55
2022-10-28T14:23:08.615Z,54
2022-10-28T14:24:10.991Z,54
2022-10-28T14:25:21.614Z,53
2022-10-28T14:26:24.721Z,53
2022-10-28T14:28:31.325Z,52
2022-10-28T14:29:34.179Z,51
2022-10-28T14:31:39.613Z,51
2022-10-28T14:33:45.695Z,50
2022-10-28T14:34:49.183Z,50
2022-10-28T14:36:56.268Z,49
2022-10-28T14:37:59.370Z,48
2022-10-28T14:39:02.753Z,48
2022-10-28T14:40:05.637Z,47
2022-10-28T14:42:11.590Z,45
2022-10-28T14:43:15.295Z,43
2022-10-28T14:45:21.087Z,41
2022-10-28T14:47:26.687Z,39
2022-10-28T14:48:29.464Z,38
2022-10-28T14:50:35.435Z,36
2022-10-28T14:52:42.132Z,35
2022-10-28T14:53:45.634Z,34
2022-10-28T14:55:50.922Z,32
2022-10-28T14:57:58.674Z,31
2022-10-28T14:59:01.168Z,30
2022-10-28T15:01:07.470Z,27
2022-10-28T15:02:11.594Z,26
2022-10-28T15:03:15.282Z,25
2022-10-28T15:04:18.508Z,24
2022-10-28T15:06:24.036Z,22
2022-10-28T15:08:31.233Z,21
2022-10-28T15:09:34.619Z,20
2022-10-28T15:10:46.470Z,19
2022-10-28T15:11:49.553Z,18
2022-10-28T15:13:55.340Z,17
2022-10-28T15:16:06.942Z,15
2022-10-28T15:17:09.569Z,14
2022-10-28T15:19:15.725Z,13
2022-10-28T15:21:20.928Z,12
2022-10-28T15:23:27.648Z,11
2022-10-28T15:24:31.969Z,10
2022-10-28T15:26:37.817Z,9
2022-10-28T15:28:44.406Z,8
2022-10-28T15:29:47.878Z,7
2022-10-28T15:30:50.598Z,7
2022-10-28T15:31:53.612Z,6
2022-10-28T15:33:59.748Z,6
2022-10-28T15:36:05.467Z,5
2022-10-28T15:37:08.613Z,4
2022-10-28T15:39:14.837Z,4
2022-10-28T15:41:21.518Z,3
2022-10-28T15:42:24.739Z,3
2022-10-28T15:44:30.978Z,2
2022-10-28T15:45:43.374Z,2
2022-10-28T15:46:46.155Z,2
2022-10-28T15:47:49.514Z,2
2022-10-28T15:48:52.909Z,2
2022-10-28T15:49:56.063Z,2
2022-10-28T15:52:01.457Z,1
2022-10-28T15:53:04.632Z,1
2022-10-28T15:54:07.863Z,1
2022-10-28T15:55:10.834Z,1
2022-10-28T15:56:13.622Z,1
2022-10-28T15:57:16.806Z,1
2022-10-28T15:58:21.206Z,0
2022-10-28T16:00:26.877Z,0
2022-10-28T16:01:31.739Z,0
2022-10-28T16:02:37.103Z,0
2022-10-28T16:03:40.195Z,0
2022-10-28T16:05:46.867Z,0
2022-10-28T16:07:55.638Z,0
2022-10-28T16:08:59.027Z,0
2022-10-28T16:11:05.920Z,0
2022-10-28T16:13:14.089Z,0
2022-10-28T16:14:17.158Z,0
2022-10-28T16:16:23.661Z,0
2022-10-28T16:18:29.767Z,0
2022-10-28T16:19:32.847Z,0
2022-10-28T16:21:39.154Z,0
2022-10-28T16:22:41.593Z,0
2022-10-28T16:23:45.067Z,0
2022-10-28T16:24:47.819Z,0
2022-10-28T16:26:53.818Z,0
2022-10-28T16:29:01.908Z,0
2022-10-28T16:30:05.585Z,0
2022-10-28T16:31:08.633Z,0
2022-10-28T16:32:11.711Z,0
2022-10-28T16:34:17.385Z,0
2022-10-28T16:36:24.237Z,0
2022-10-28T16:37:27.188Z,0
2022-10-28T16:39:33.438Z,0
2022-10-28T16:41:06.449Z,0
2022-10-28T16:42:09.638Z,0
2022-10-28T16:43:13.260Z,0
2022-10-28T16:44:16.645Z,0
2022-10-28T16:45:18.895Z,0
2022-10-28T16:47:24.934Z,0
2022-10-28T16:49:32.157Z,0
2022-10-28T16:50:35.141Z,0
2022-10-28T16:52:41.657Z,0
2022-10-28T16:54:47.206Z,0
2022-10-28T16:56:53.719Z,0
2022-10-28T16:57:58.971Z,0
2022-10-28T17:00:05.179Z,0
2022-10-28T17:02:12.631Z,0
2022-10-28T17:04:18.966Z,0
2022-10-28T17:05:22.335Z,0
2022-10-28T17:07:28.274Z,0
2022-10-28T17:09:05.201Z,0
2022-10-28T17:10:08.211Z,0
2022-10-28T17:12:14.688Z,0
2022-10-28T17:14:21.606Z,0
2022-10-28T17:16:28.067Z,0
2022-10-28T17:17:30.782Z,0
2022-10-28T17:19:37.364Z,0
2022-10-28T17:21:42.585Z,0
2022-10-28T17:23:47.695Z,0
2022-10-28T17:24:50.977Z,0
2022-10-28T17:26:57.437Z,0
2022-10-28T17:29:04.665Z,0
2022-10-28T17:31:11.614Z,0
2022-10-28T17:32:14.682Z,0
2022-10-28T17:34:21.099Z,0
2022-10-28T17:36:26.790Z,0
2022-10-28T17:38:32.449Z,0
2022-10-28T17:39:35.518Z,0
2022-10-28T17:41:41.674Z,0
2022-10-28T17:43:48.521Z,0
2022-10-28T17:44:51.323Z,0
2022-10-28T17:46:58.539Z,0
2022-10-28T17:49:04.494Z,0
2022-10-28T17:51:10.399Z,0
2022-10-28T17:52:13.401Z,0
2022-10-28T17:54:20.253Z,0
2022-10-28T17:56:26.305Z,0
2022-10-28T17:57:29.432Z,0
2022-10-28T17:58:32.169Z,0
2022-10-28T17:59:35.220Z,0
2022-10-28T18:01:42.886Z,0
2022-10-28T18:03:49.999Z,0
2022-10-28T18:04:53.432Z,0
2022-10-28T18:06:59.019Z,0
2022-10-28T18:09:05.528Z,0
2022-10-28T18:11:11.185Z,0
2022-10-28T18:12:14.895Z,0
2022-10-28T18:14:21.340Z,0
2022-10-28T18:16:27.371Z,0
2022-10-28T18:18:43.792Z,0
2022-10-28T18:19:47.421Z,0
2022-10-28T18:20:50.875Z,0
2022-10-28T18:21:53.905Z,0
2022-10-28T18:24:02.065Z,0
2022-10-28T18:25:05.231Z,0
2022-10-28T18:26:08.326Z,0
2022-10-28T18:27:11.043Z,0
2022-10-28T18:29:16.564Z,0
2022-10-28T18:30:19.537Z,0
2022-10-28T18:31:22.935Z,0
2022-10-28T18:32:25.996Z,0
2022-10-28T18:34:33.709Z,0
2022-10-28T18:36:40.287Z,0
2022-10-28T18:37:43.986Z,0
2022-10-28T18:39:49.855Z,0
2022-10-28T18:41:54.912Z,0
2022-10-28T18:44:00.615Z,0
2022-10-28T18:45:03.393Z,0
2022-10-28T18:47:09.455Z,0
2022-10-28T18:49:16.581Z,0
2022-10-28T18:51:22.969Z,0
2022-10-28T18:52:25.793Z,0
2022-10-28T18:54:31.387Z,0
2022-10-28T18:56:36.887Z,0
2022-10-28T18:58:43.383Z,0
2022-10-28T19:00:20.996Z,0
2022-10-28T19:01:25.418Z,0
2022-10-28T19:02:30.074Z,0
2022-10-28T19:04:37.027Z,0
2022-10-28T19:06:43.623Z,0
2022-10-28T19:08:50.041Z,0
2022-10-28T19:09:53.043Z,0
2022-10-28T19:11:58.945Z,0
2022-10-28T19:14:05.286Z,0
2022-10-28T19:15:07.529Z,0
2022-10-28T19:17:13.823Z,0
2022-10-28T19:19:24.204Z,0
2022-10-28T19:21:31.192Z,0
2022-10-28T19:23:37.808Z,0
2022-10-28T19:24:40.246Z,0
2022-10-28T19:26:45.548Z,0
2022-10-28T19:28:50.715Z,0
2022-10-28T19:30:55.675Z,0
2022-10-28T19:31:58.400Z,0
2022-10-28T19:34:04.280Z,0
2022-10-28T19:36:10.299Z,0
2022-10-28T19:38:16.288Z,0
2022-10-28T19:39:19.001Z,0
2022-10-28T19:41:25.292Z,0
2022-10-28T19:43:31.591Z,0
2022-10-28T19:45:37.108Z,0
2022-10-28T19:46:40.763Z,0
2022-10-28T19:48:46.427Z,0
2022-10-28T19:50:52.430Z,0
2022-10-28T19:51:56.066Z,0
2022-10-28T19:52:59.259Z,0
2022-10-28T19:54:02.429Z,0
2022-10-28T19:56:08.747Z,0
2022-10-28T19:58:13.984Z,0
2022-10-28T19:59:17.230Z,0
2022-10-28T20:01:23.199Z,0
2022-10-28T20:03:43.817Z,0
2022-10-28T20:05:55.878Z,0
2022-10-28T20:06:58.657Z,0
2022-10-28T20:08:01.094Z,0
2022-10-28T20:09:04.198Z,0
2022-10-28T20:11:09.774Z,0
2022-10-28T20:12:12.581Z,0
2022-10-28T20:13:15.577Z,0
2022-10-28T20:14:18.908Z,0
2022-10-28T20:16:25.515Z,0
2022-10-28T20:18:31.839Z,0
2022-10-28T20:20:37.937Z,0
2022-10-28T20:21:41.383Z,0
2022-10-28T20:23:48.801Z,0
2022-10-28T20:25:55.263Z,0
2022-10-28T20:28:00.551Z,0
2022-10-28T20:29:03.650Z,0
2022-10-28T20:31:10.216Z,0
2022-10-28T20:33:16.308Z,0
2022-10-28T20:35:22.015Z,0
2022-10-28T20:36:24.858Z,0
2022-10-28T20:38:31.988Z,0
2022-10-28T20:40:38.808Z,0
2022-10-28T20:41:41.957Z,0
2022-10-28T20:42:45.029Z,0
2022-10-28T20:43:48.346Z,0
2022-10-28T20:45:54.425Z,0
2022-10-28T20:48:00.000Z,0
2022-10-28T20:49:03.396Z,0
2022-10-28T20:50:06.681Z,0
2022-10-28T20:51:09.428Z,0
2022-10-28T20:53:16.750Z,0
2022-10-28T20:55:22.609Z,0
2022-10-28T20:56:25.430Z,0
2022-10-28T20:58:30.885Z,0
2022-10-28T21:00:36.702Z,0
2022-10-28T21:02:46.172Z,0
2022-10-28T21:03:50.743Z,0
2022-10-28T21:05:57.735Z,0
2022-10-28T21:08:03.695Z,0
2022-10-28T21:10:10.405Z,0
2022-10-28T21:11:13.396Z,0
2022-10-28T21:13:20.111Z,0
2022-10-28T21:15:26.654Z,0
2022-10-28T21:17:33.962Z,0
2022-10-28T21:18:36.837Z,0
2022-10-28T21:20:43.204Z,0
2022-10-28T21:22:49.600Z,0
2022-10-28T21:24:55.259Z,0
2022-10-28T21:25:58.890Z,0
2022-10-28T21:28:05.937Z,0
2022-10-28T21:30:13.535Z,0
2022-10-28T21:31:17.475Z,0
2022-10-28T21:32:20.770Z,0
2022-10-28T21:33:25.192Z,0
2022-10-28T21:35:32.345Z,0
2022-10-28T21:37:39.986Z,0
2022-10-28T21:38:42.966Z,0
2022-10-28T21:40:49.348Z,0
2022-10-28T21:42:55.970Z,0
2022-10-28T21:45:01.878Z,0
2022-10-28T21:46:04.056Z,0
2022-10-28T21:48:09.592Z,0
2022-10-28T21:50:15.754Z,0
2022-10-28T21:52:21.834Z,0
2022-10-28T21:53:24.831Z,0
2022-10-28T21:55:56.696Z,0
2022-10-28T21:58:08.760Z,0
2022-10-28T22:00:17.073Z,0
2022-10-28T22:02:29.579Z,0
2022-10-28T22:03:33.455Z,0
2022-10-28T22:05:41.672Z,0
2022-10-28T22:07:48.674Z,0
2022-10-28T22:09:55.417Z,0
2022-10-28T22:11:01.313Z,0
2022-10-28T22:12:08.357Z,0
2022-10-28T22:13:13.192Z,0
2022-10-28T22:15:21.169Z,0
2022-10-28T22:17:29.436Z,0
2022-10-28T22:18:32.741Z,0
2022-10-28T22:20:42.560Z,0
2022-10-28T22:22:51.375Z,0
2022-10-28T22:25:01.963Z,0
2022-10-28T22:26:10.474Z,0
2022-10-28T22:27:16.608Z,0
2022-10-28T22:28:20.145Z,0
2022-10-28T22:30:27.491Z,0
2022-10-28T22:32:37.979Z,0
2022-10-28T22:33:42.638Z,0
2022-10-28T22:34:46.790Z,0
2022-10-28T22:35:50.501Z,0
2022-10-28T22:38:01.364Z,0
2022-10-28T22:39:06.619Z,0
2022-10-28T22:40:09.599Z,0
2022-10-28T22:41:12.761Z,0
2022-10-28T22:42:16.051Z,0
2022-10-28T22:43:23.188Z,0
2022-10-28T22:44:28.200Z,0
2022-10-28T22:45:33.135Z,0
2022-10-28T22:47:43.348Z,0
2022-10-28T22:48:48.513Z,0
2022-10-28T22:50:56.471Z,0
2022-10-28T22:53:04.797Z,0
2022-10-28T22:55:12.305Z,0
2022-10-28T22:56:15.938Z,0
2022-10-28T22:58:22.313Z,0
2022-10-28T23:00:28.406Z,0
2022-10-28T23:02:36.399Z,0
2022-10-28T23:03:39.310Z,0
2022-10-28T23:05:46.380Z,0
2022-10-28T23:07:52.944Z,0
2022-10-28T23:09:59.443Z,0
2022-10-28T23:11:01.930Z,0
2022-10-28T23:13:08.147Z,0
2022-10-28T23:15:14.711Z,0
2022-10-28T23:17:21.454Z,0
2022-10-28T23:18:24.799Z,0
2022-10-28T23:20:30.167Z,0
2022-10-28T23:22:36.258Z,0
2022-10-28T23:23:39.533Z,0
2022-10-28T23:24:42.439Z,0
2022-10-28T23:25:45.243Z,0
2022-10-28T23:27:51.908Z,0
2022-10-28T23:29:58.623Z,0
2022-10-28T23:31:01.990Z,0
2022-10-28T23:32:05.633Z,0
2022-10-28T23:33:08.146Z,0
2022-10-28T23:35:13.626Z,0